PWSweather.com
Personal Weather Stations
Station Observations
IMAZOWIE6
WarszawaPL

WarszawaPL

Lat: 52.27957, Lon: 21.05489

Elevation: 100

Station Type: WS1080

http://stacjapogody.waw.pl/

High Low Average
Temperature 41.2°F5.1°C 34.9°F1.6°C 37.8°F3.2°C
Dew Point -12.2°F-24.6°C -169.3°F-111.8°C -123.6°F-86.4°C
Winds 2.0 mph 3.2 kmh Calm Calm Calm NCalm N
Wind Gusts 4.8 mph7.7 kmh -- 2.0 mph3.2 kmh
Humidity 11% 10% 11%
Pressure 29.39 in995.3 mb 29.06 in984.1 mb -
Precipitation 0.00 in0.0 mm - -
Hour Temp Dew Point Humidity Winds Wind Gusts Pressure Precip Precip Rate Daily Precip Total
12:03 AM 41.2°F5.1°C -168.7°F-111.5°C - Calm Calm 1.4 mph2.3 kmh 29.06 in984.1 mb 0.00 in0.0 mm 0.00 in0.0 mm 0.00 in0.0 mm
12:18 AM 41.2°F5.1°C -168.7°F-111.5°C - Calm Calm -- 29.07 in984.4 mb 0.00 in0.0 mm 0.00 in0.0 mm 0.00 in0.0 mm
12:33 AM 41.0°F5.0°C -168.7°F-111.5°C - Calm Calm 0.6 mph1.0 kmh 29.08 in984.8 mb 0.00 in0.0 mm 0.00 in0.0 mm 0.00 in0.0 mm
12:48 AM 41.2°F5.1°C -168.7°F-111.5°C - Calm Calm 0.6 mph1.0 kmh 29.08 in984.8 mb 0.00 in0.0 mm 0.00 in0.0 mm 0.00 in0.0 mm
01:03 AM 41.0°F5.0°C -168.7°F-111.5°C - Calm Calm -- 29.08 in984.8 mb 0.00 in0.0 mm 0.00 in0.0 mm 0.00 in0.0 mm
01:18 AM 40.6°F4.8°C -168.7°F-111.5°C - Calm Calm 0.6 mph1.0 kmh 29.09 in985.1 mb 0.00 in0.0 mm 0.00 in0.0 mm 0.00 in0.0 mm
01:33 AM 40.6°F4.8°C -168.7°F-111.5°C - Calm Calm 1.4 mph2.3 kmh 29.09 in985.1 mb 0.00 in0.0 mm 0.00 in0.0 mm 0.00 in0.0 mm
01:48 AM 40.5°F4.7°C -168.8°F-111.6°C - Calm Calm -- 29.09 in985.1 mb 0.00 in0.0 mm 0.00 in0.0 mm 0.00 in0.0 mm
02:03 AM 40.5°F4.7°C -168.8°F-111.6°C - Calm Calm 0.6 mph1.0 kmh 29.10 in985.4 mb 0.00 in0.0 mm 0.00 in0.0 mm 0.00 in0.0 mm
02:18 AM 40.5°F4.7°C -168.8°F-111.6°C - Calm Calm 0.6 mph1.0 kmh 29.10 in985.4 mb 0.00 in0.0 mm 0.00 in0.0 mm 0.00 in0.0 mm
02:33 AM 40.5°F4.7°C -168.8°F-111.6°C - Calm Calm 0.6 mph1.0 kmh 29.11 in985.8 mb 0.00 in0.0 mm 0.00 in0.0 mm 0.00 in0.0 mm
02:48 AM 40.5°F4.7°C -168.8°F-111.6°C - Calm Calm -- 29.11 in985.8 mb 0.00 in0.0 mm 0.00 in0.0 mm 0.00 in0.0 mm
03:03 AM 40.5°F4.7°C -168.8°F-111.6°C - Calm Calm 1.4 mph2.3 kmh 29.10 in985.4 mb 0.00 in0.0 mm 0.00 in0.0 mm 0.00 in0.0 mm
03:18 AM 40.3°F4.6°C -168.8°F-111.6°C - Calm Calm -- 29.11 in985.8 mb 0.00 in0.0 mm 0.00 in0.0 mm 0.00 in0.0 mm
03:33 AM 40.3°F4.6°C -168.8°F-111.6°C - Calm Calm -- 29.11 in985.8 mb 0.00 in0.0 mm 0.00 in0.0 mm 0.00 in0.0 mm
03:48 AM 40.1°F4.5°C -168.8°F-111.6°C - Calm Calm -- 29.12 in986.1 mb 0.00 in0.0 mm 0.00 in0.0 mm 0.00 in0.0 mm
04:03 AM 39.9°F4.4°C -168.8°F-111.6°C - Calm Calm -- 29.12 in986.1 mb 0.00 in0.0 mm 0.00 in0.0 mm 0.00 in0.0 mm
04:18 AM 39.7°F4.3°C -168.8°F-111.6°C - Calm Calm 0.6 mph1.0 kmh 29.12 in986.1 mb 0.00 in0.0 mm 0.00 in0.0 mm 0.00 in0.0 mm
04:33 AM 39.7°F4.3°C -168.8°F-111.6°C - Calm Calm -- 29.12 in986.1 mb 0.00 in0.0 mm 0.00 in0.0 mm 0.00 in0.0 mm
04:48 AM 39.6°F4.2°C -168.8°F-111.6°C - Calm Calm -- 29.13 in986.5 mb 0.00 in0.0 mm 0.00 in0.0 mm 0.00 in0.0 mm
05:03 AM 39.4°F4.1°C -168.9°F-111.6°C - Calm Calm -- 29.13 in986.5 mb 0.00 in0.0 mm 0.00 in0.0 mm 0.00 in0.0 mm
05:18 AM 39.6°F4.2°C -168.8°F-111.6°C - Calm Calm 0.6 mph1.0 kmh 29.14 in986.8 mb 0.00 in0.0 mm 0.00 in0.0 mm 0.00 in0.0 mm
05:33 AM 39.4°F4.1°C -168.9°F-111.6°C - Calm Calm 0.6 mph1.0 kmh 29.14 in986.8 mb 0.00 in0.0 mm 0.00 in0.0 mm 0.00 in0.0 mm
05:48 AM 39.4°F4.1°C -168.9°F-111.6°C - Calm Calm -- 29.13 in986.5 mb 0.00 in0.0 mm 0.00 in0.0 mm 0.00 in0.0 mm
06:03 AM 39.4°F4.1°C -168.9°F-111.6°C - Calm Calm -- 29.14 in986.8 mb 0.00 in0.0 mm 0.00 in0.0 mm 0.00 in0.0 mm
06:18 AM 39.4°F4.1°C -168.9°F-111.6°C - Calm Calm -- 29.14 in986.8 mb 0.00 in0.0 mm 0.00 in0.0 mm 0.00 in0.0 mm
06:33 AM 39.2°F4.0°C -168.9°F-111.6°C - Calm Calm -- 29.15 in987.1 mb 0.00 in0.0 mm 0.00 in0.0 mm 0.00 in0.0 mm
06:48 AM 39.4°F4.1°C -168.9°F-111.6°C - Calm Calm -- 29.15 in987.1 mb 0.00 in0.0 mm 0.00 in0.0 mm 0.00 in0.0 mm
07:03 AM 39.0°F3.9°C -168.9°F-111.6°C - Calm Calm -- 29.16 in987.5 mb 0.00 in0.0 mm 0.00 in0.0 mm 0.00 in0.0 mm
07:18 AM 39.2°F4.0°C -168.9°F-111.6°C - Calm Calm 0.6 mph1.0 kmh 29.16 in987.5 mb 0.01 in0.3 mm 0.05 in1.3 mm 0.01 in0.3 mm
07:33 AM 38.8°F3.8°C -168.9°F-111.6°C - Calm Calm -- 29.17 in987.8 mb 0.02 in0.5 mm 0.05 in1.3 mm 0.02 in0.5 mm
07:49 AM 38.7°F3.7°C -168.9°F-111.6°C - Calm Calm -- 29.18 in988.1 mb 0.04 in1.0 mm 0.05 in1.3 mm 0.04 in1.0 mm
08:05 AM 38.5°F3.6°C -169.0°F-111.7°C - Calm Calm 2.0 mph3.2 kmh 29.19 in988.5 mb 0.04 in1.0 mm 0.00 in0.0 mm 0.04 in1.0 mm
08:16 AM 37.9°F3.3°C -169.0°F-111.7°C - 0.6 mph N1.0 kmh N 2.8 mph4.5 kmh 29.19 in988.5 mb 0.04 in1.0 mm 0.00 in0.0 mm 0.04 in1.0 mm
08:32 AM 37.6°F3.1°C -169.0°F-111.7°C - Calm Calm 0.6 mph1.0 kmh 29.19 in988.5 mb 0.05 in1.3 mm 0.05 in1.3 mm 0.05 in1.3 mm
08:48 AM 37.0°F2.8°C -169.1°F-111.7°C - Calm Calm 0.6 mph1.0 kmh 29.19 in988.5 mb 0.06 in1.5 mm 0.05 in1.3 mm 0.06 in1.5 mm
09:04 AM 36.7°F2.6°C -169.1°F-111.7°C - Calm Calm 0.6 mph1.0 kmh 29.21 in989.2 mb 0.06 in1.5 mm 0.00 in0.0 mm 0.06 in1.5 mm
09:20 AM 36.5°F2.5°C -169.2°F-111.8°C - Calm Calm 2.0 mph3.2 kmh 29.20 in988.8 mb 0.01 in0.3 mm 0.00 in0.0 mm 0.06 in1.5 mm
09:31 AM 36.3°F2.4°C -169.2°F-111.8°C - Calm Calm 2.0 mph3.2 kmh 29.21 in989.2 mb 0.01 in0.3 mm 0.00 in0.0 mm 0.06 in1.5 mm
09:47 AM 36.1°F2.3°C -169.2°F-111.8°C - 0.6 mph N1.0 kmh N 4.0 mph6.4 kmh 29.22 in989.5 mb 0.01 in0.3 mm 0.00 in0.0 mm 0.06 in1.5 mm
10:03 AM 35.8°F2.1°C -169.2°F-111.8°C - Calm Calm 2.8 mph4.5 kmh 29.24 in990.2 mb 0.01 in0.3 mm 0.00 in0.0 mm 0.06 in1.5 mm
10:19 AM 35.6°F2.0°C -169.2°F-111.8°C - Calm Calm 1.4 mph2.3 kmh 29.23 in989.8 mb 0.02 in0.5 mm 0.05 in1.3 mm 0.07 in1.8 mm
10:35 AM 35.2°F1.8°C -169.3°F-111.8°C - Calm Calm 0.6 mph1.0 kmh 29.22 in989.5 mb 0.02 in0.5 mm 0.00 in0.0 mm 0.07 in1.8 mm
10:51 AM 35.2°F1.8°C -169.3°F-111.8°C - 0.6 mph N1.0 kmh N 3.4 mph5.5 kmh 29.24 in990.2 mb 0.02 in0.5 mm 0.00 in0.0 mm 0.07 in1.8 mm
11:01 AM 35.4°F1.9°C -169.3°F-111.8°C - Calm Calm 1.4 mph2.3 kmh 29.23 in989.8 mb 0.04 in1.0 mm 0.01 in0.3 mm 0.09 in2.3 mm
11:17 AM 35.6°F2.0°C -169.2°F-111.8°C - Calm Calm 2.8 mph4.5 kmh 29.24 in990.2 mb 0.00 in0.0 mm 0.00 in0.0 mm 0.09 in2.3 mm
11:33 AM 35.8°F2.1°C -169.2°F-111.8°C - Calm Calm 1.4 mph2.3 kmh 29.24 in990.2 mb 0.00 in0.0 mm 0.00 in0.0 mm 0.09 in2.3 mm
11:49 AM 36.3°F2.4°C -169.2°F-111.8°C - Calm Calm 1.4 mph2.3 kmh 29.24 in990.2 mb 0.01 in0.3 mm 0.05 in1.3 mm 0.10 in2.5 mm
12:04 PM 36.9°F2.7°C -169.1°F-111.7°C - Calm Calm 2.8 mph4.5 kmh 29.24 in990.2 mb 0.01 in0.3 mm 0.00 in0.0 mm 0.10 in2.5 mm
12:19 PM 36.7°F2.6°C -169.1°F-111.7°C - Calm Calm -- 29.24 in990.2 mb 0.00 in0.0 mm 0.00 in0.0 mm 0.10 in2.5 mm
12:34 PM 36.7°F2.6°C -14.8°F-26.0°C 10% Calm Calm 0.6 mph1.0 kmh 29.24 in990.2 mb 0.00 in0.0 mm 0.00 in0.0 mm 0.10 in2.5 mm
12:49 PM 36.9°F2.7°C -14.7°F-25.9°C 10% Calm Calm 3.4 mph5.5 kmh 29.25 in990.5 mb 0.00 in0.0 mm 0.00 in0.0 mm 0.10 in2.5 mm
01:04 PM 37.0°F2.8°C -14.5°F-25.8°C 10% Calm Calm 2.0 mph3.2 kmh 29.25 in990.5 mb 0.00 in0.0 mm 0.00 in0.0 mm 0.10 in2.5 mm
01:19 PM 37.0°F2.8°C -14.5°F-25.8°C 10% Calm Calm 0.6 mph1.0 kmh 29.25 in990.5 mb 0.00 in0.0 mm 0.00 in0.0 mm 0.10 in2.5 mm
01:34 PM 37.0°F2.8°C -14.5°F-25.8°C 10% Calm Calm 2.0 mph3.2 kmh 29.26 in990.9 mb 0.00 in0.0 mm 0.00 in0.0 mm 0.10 in2.5 mm
01:49 PM 37.4°F3.0°C -12.4°F-24.7°C 11% Calm Calm 2.8 mph4.5 kmh 29.26 in990.9 mb 0.00 in0.0 mm 0.00 in0.0 mm 0.10 in2.5 mm
02:04 PM 37.4°F3.0°C -12.4°F-24.7°C 11% Calm Calm -- 29.28 in991.5 mb 0.00 in0.0 mm 0.00 in0.0 mm 0.10 in2.5 mm
02:19 PM 37.6°F3.1°C -12.2°F-24.6°C 11% Calm Calm 2.0 mph3.2 kmh 29.28 in991.5 mb 0.00 in0.0 mm 0.00 in0.0 mm 0.10 in2.5 mm
02:34 PM 37.2°F2.9°C -12.5°F-24.7°C 11% Calm Calm 3.4 mph5.5 kmh 29.29 in991.9 mb 0.00 in0.0 mm 0.00 in0.0 mm 0.10 in2.5 mm
02:49 PM 37.4°F3.0°C -12.4°F-24.7°C 11% Calm Calm -- 29.29 in991.9 mb 0.00 in0.0 mm 0.00 in0.0 mm 0.10 in2.5 mm
03:04 PM 37.4°F3.0°C -12.4°F-24.7°C 11% Calm Calm 1.4 mph2.3 kmh 29.30 in992.2 mb 0.00 in0.0 mm 0.00 in0.0 mm 0.10 in2.5 mm
03:19 PM 37.4°F3.0°C -12.4°F-24.7°C 11% Calm Calm 2.0 mph3.2 kmh 29.30 in992.2 mb 0.00 in0.0 mm 0.00 in0.0 mm 0.10 in2.5 mm
03:34 PM 37.2°F2.9°C -12.5°F-24.7°C 11% Calm Calm 0.6 mph1.0 kmh 29.30 in992.2 mb 0.00 in0.0 mm 0.00 in0.0 mm 0.10 in2.5 mm
03:49 PM 37.2°F2.9°C -12.5°F-24.7°C 11% 0.6 mph N1.0 kmh N 2.8 mph4.5 kmh 29.31 in992.6 mb 0.00 in0.0 mm 0.00 in0.0 mm 0.10 in2.5 mm
04:04 PM 37.4°F3.0°C -12.4°F-24.7°C 11% Calm Calm 1.4 mph2.3 kmh 29.31 in992.6 mb 0.00 in0.0 mm 0.00 in0.0 mm 0.10 in2.5 mm
04:19 PM 37.0°F2.8°C -12.7°F-24.8°C 11% 0.6 mph N1.0 kmh N 2.0 mph3.2 kmh 29.31 in992.6 mb 0.00 in0.0 mm 0.00 in0.0 mm 0.10 in2.5 mm
04:34 PM 36.9°F2.7°C -12.8°F-24.9°C 11% Calm Calm -- 29.32 in992.9 mb 0.00 in0.0 mm 0.00 in0.0 mm 0.10 in2.5 mm
04:49 PM 36.9°F2.7°C -12.8°F-24.9°C 11% Calm Calm 2.8 mph4.5 kmh 29.32 in992.9 mb 0.00 in0.0 mm 0.00 in0.0 mm 0.10 in2.5 mm
05:04 PM 36.9°F2.7°C -12.8°F-24.9°C 11% 0.6 mph N1.0 kmh N 2.8 mph4.5 kmh 29.32 in992.9 mb 0.00 in0.0 mm 0.00 in0.0 mm 0.10 in2.5 mm
05:19 PM 37.0°F2.8°C -12.7°F-24.8°C 11% Calm Calm 0.6 mph1.0 kmh 29.33 in993.2 mb 0.00 in0.0 mm 0.00 in0.0 mm 0.10 in2.5 mm
05:34 PM 37.0°F2.8°C -12.7°F-24.8°C 11% 0.6 mph N1.0 kmh N 3.4 mph5.5 kmh 29.33 in993.2 mb 0.00 in0.0 mm 0.00 in0.0 mm 0.10 in2.5 mm
05:49 PM 37.4°F3.0°C -12.4°F-24.7°C 11% Calm Calm 4.0 mph6.4 kmh 29.33 in993.2 mb 0.00 in0.0 mm 0.00 in0.0 mm 0.10 in2.5 mm
06:04 PM 37.6°F3.1°C -12.2°F-24.6°C 11% 0.6 mph N1.0 kmh N 3.4 mph5.5 kmh 29.34 in993.6 mb 0.00 in0.0 mm 0.00 in0.0 mm 0.10 in2.5 mm
06:19 PM 37.2°F2.9°C -14.4°F-25.8°C 10% 1.4 mph N2.3 kmh N 4.0 mph6.4 kmh 29.34 in993.6 mb 0.00 in0.0 mm 0.00 in0.0 mm 0.10 in2.5 mm
06:34 PM 36.9°F2.7°C -14.7°F-25.9°C 10% 1.4 mph N2.3 kmh N 2.8 mph4.5 kmh 29.34 in993.6 mb 0.00 in0.0 mm 0.00 in0.0 mm 0.10 in2.5 mm
06:49 PM 36.7°F2.6°C -14.8°F-26.0°C 10% 1.4 mph N2.3 kmh N 4.0 mph6.4 kmh 29.34 in993.6 mb 0.00 in0.0 mm 0.00 in0.0 mm 0.10 in2.5 mm
07:04 PM 36.5°F2.5°C -14.9°F-26.1°C 10% 0.6 mph N1.0 kmh N 2.8 mph4.5 kmh 29.34 in993.6 mb 0.00 in0.0 mm 0.00 in0.0 mm 0.10 in2.5 mm
07:19 PM 36.9°F2.7°C -14.7°F-25.9°C 10% 0.6 mph N1.0 kmh N 2.8 mph4.5 kmh 29.35 in993.9 mb 0.00 in0.0 mm 0.00 in0.0 mm 0.10 in2.5 mm
07:34 PM 36.9°F2.7°C -169.1°F-111.7°C - 1.4 mph N2.3 kmh N 3.4 mph5.5 kmh 29.35 in993.9 mb 0.00 in0.0 mm 0.00 in0.0 mm 0.10 in2.5 mm
07:49 PM 36.9°F2.7°C -169.1°F-111.7°C - 0.6 mph N1.0 kmh N 3.4 mph5.5 kmh 29.36 in994.2 mb 0.00 in0.0 mm 0.00 in0.0 mm 0.10 in2.5 mm
08:04 PM 36.9°F2.7°C -169.1°F-111.7°C - 0.6 mph N1.0 kmh N 3.4 mph5.5 kmh 29.35 in993.9 mb 0.00 in0.0 mm 0.00 in0.0 mm 0.10 in2.5 mm
08:19 PM 36.9°F2.7°C -169.1°F-111.7°C - 1.4 mph N2.3 kmh N 2.8 mph4.5 kmh 29.36 in994.2 mb 0.00 in0.0 mm 0.00 in0.0 mm 0.10 in2.5 mm
08:34 PM 37.0°F2.8°C -169.1°F-111.7°C - 2.0 mph N3.2 kmh N 4.8 mph7.7 kmh 29.36 in994.2 mb 0.00 in0.0 mm 0.00 in0.0 mm 0.10 in2.5 mm
08:49 PM 36.7°F2.6°C -169.1°F-111.7°C - 1.4 mph N2.3 kmh N 4.0 mph6.4 kmh 29.37 in994.6 mb 0.00 in0.0 mm 0.00 in0.0 mm 0.10 in2.5 mm
09:04 PM 36.9°F2.7°C -169.1°F-111.7°C - 1.4 mph N2.3 kmh N 3.4 mph5.5 kmh 29.37 in994.6 mb 0.00 in0.0 mm 0.00 in0.0 mm 0.10 in2.5 mm
09:19 PM 36.7°F2.6°C -169.1°F-111.7°C - 1.4 mph N2.3 kmh N 4.0 mph6.4 kmh 29.37 in994.6 mb 0.00 in0.0 mm 0.00 in0.0 mm 0.10 in2.5 mm
09:34 PM 36.5°F2.5°C -169.2°F-111.8°C - 0.6 mph N1.0 kmh N 2.0 mph3.2 kmh 29.37 in994.6 mb 0.00 in0.0 mm 0.00 in0.0 mm 0.10 in2.5 mm
09:49 PM 36.5°F2.5°C -169.2°F-111.8°C - 1.4 mph N2.3 kmh N 2.8 mph4.5 kmh 29.38 in994.9 mb 0.00 in0.0 mm 0.00 in0.0 mm 0.10 in2.5 mm
10:04 PM 36.5°F2.5°C -169.2°F-111.8°C - 0.6 mph N1.0 kmh N 1.4 mph2.3 kmh 29.38 in994.9 mb 0.00 in0.0 mm 0.00 in0.0 mm 0.10 in2.5 mm
10:19 PM 36.5°F2.5°C -169.2°F-111.8°C - 1.4 mph N2.3 kmh N 2.8 mph4.5 kmh 29.38 in994.9 mb 0.00 in0.0 mm 0.00 in0.0 mm 0.10 in2.5 mm
10:34 PM 36.3°F2.4°C -169.2°F-111.8°C - 1.4 mph N2.3 kmh N 2.8 mph4.5 kmh 29.38 in994.9 mb 0.00 in0.0 mm 0.00 in0.0 mm 0.10 in2.5 mm
10:49 PM 36.0°F2.2°C -169.2°F-111.8°C - 0.6 mph N1.0 kmh N 2.8 mph4.5 kmh 29.38 in994.9 mb 0.00 in0.0 mm 0.00 in0.0 mm 0.10 in2.5 mm
11:04 PM 35.6°F2.0°C -169.2°F-111.8°C - Calm Calm 2.0 mph3.2 kmh 29.37 in994.6 mb 0.00 in0.0 mm 0.00 in0.0 mm 0.10 in2.5 mm
11:19 PM 35.1°F1.7°C -169.3°F-111.8°C - Calm Calm -- 29.38 in994.9 mb 0.00 in0.0 mm 0.00 in0.0 mm 0.10 in2.5 mm
11:34 PM 34.9°F1.6°C -169.3°F-111.8°C - Calm Calm 2.0 mph3.2 kmh 29.39 in995.3 mb 0.00 in0.0 mm 0.00 in0.0 mm 0.10 in2.5 mm
11:49 PM 35.4°F1.9°C -169.3°F-111.8°C - Calm Calm -- 29.39 in995.3 mb 0.00 in0.0 mm 0.00 in0.0 mm 0.10 in2.5 mm